Hemby Bridge, North Carolina
Current Conditions -  °F | °C
As of 8:53 PM on Sunday 21 Dec 2014 (Local Time) from KEQY Reporting Station
Overcast Overcast  
Wind Chill: 42°   Ceiling: 4800
Heat Index: 46°   Visibility: 10mi
Dew Point: 37°   Wind: 7mph
Humidity: 71%   Direction: 60°ENE
Pressure: 30.19"   Gusts: NA
Location:  35.0963°N, 80.6145°W
Report Text: KEQY 220153Z AUTO 06006KT 10SM FEW040 BKN048 OVC070 08/03 A3019 RMK AO2 SLP240 T00780028
Loading
Personal Weather Stations






























Interactive Weather Map New forecast layout! Learn more

10-Day Weather Forecast

Advertisements
Track Severe Weather on mobile